createdAt,value
2018-09-28T00:00:46.838Z,21.50
2018-09-28T00:01:52.006Z,21.50
2018-09-28T00:02:57.129Z,21.60
2018-09-28T00:04:02.364Z,21.50
2018-09-28T00:05:07.487Z,21.60
2018-09-28T00:06:12.743Z,21.60
2018-09-28T00:07:17.933Z,21.60
2018-09-28T00:08:23.176Z,21.60
2018-09-28T00:09:28.787Z,21.60
2018-09-28T00:10:34.077Z,21.60
2018-09-28T00:11:39.218Z,21.60
2018-09-28T00:12:44.397Z,21.60
2018-09-28T00:13:49.529Z,21.60
2018-09-28T00:14:54.771Z,21.60
2018-09-28T00:16:00.005Z,21.60
2018-09-28T00:17:05.257Z,21.60
2018-09-28T00:18:10.394Z,21.60
2018-09-28T00:19:15.615Z,21.60
2018-09-28T00:20:20.756Z,21.60
2018-09-28T00:21:25.907Z,21.60
2018-09-28T00:22:31.099Z,21.60
2018-09-28T00:23:36.243Z,21.60
2018-09-28T00:24:41.349Z,21.60
2018-09-28T00:25:46.548Z,21.60
2018-09-28T00:26:51.767Z,21.60
2018-09-28T00:27:57.006Z,21.60
2018-09-28T00:29:02.247Z,21.60
2018-09-28T00:30:07.477Z,21.60
2018-09-28T00:31:12.710Z,21.60
2018-09-28T00:32:17.815Z,21.60
2018-09-28T00:33:23.053Z,21.60
2018-09-28T00:34:28.288Z,21.60
2018-09-28T00:35:33.515Z,21.60
2018-09-28T00:36:38.744Z,21.60
2018-09-28T00:37:43.998Z,21.60
2018-09-28T00:38:49.244Z,21.50
2018-09-28T00:39:54.454Z,21.60
2018-09-28T00:40:59.664Z,21.60
2018-09-28T00:42:04.891Z,21.60
2018-09-28T00:43:10.125Z,21.60
2018-09-28T00:44:15.272Z,21.60
2018-09-28T00:45:20.538Z,21.60
2018-09-28T00:46:25.695Z,21.60
2018-09-28T00:47:30.834Z,21.60
2018-09-28T00:48:36.087Z,21.60
2018-09-28T00:49:41.275Z,21.60
2018-09-28T00:50:46.443Z,21.60
2018-09-28T00:51:51.715Z,21.60
2018-09-28T00:52:56.994Z,21.60
2018-09-28T00:54:02.298Z,21.60
2018-09-28T00:55:07.476Z,21.60
2018-09-28T00:56:12.563Z,21.60
2018-09-28T00:57:17.687Z,21.60
2018-09-28T00:58:22.928Z,21.60
2018-09-28T00:59:28.074Z,21.60
2018-09-28T01:00:33.227Z,21.60
2018-09-28T01:01:38.416Z,21.60
2018-09-28T01:02:43.573Z,21.60
2018-09-28T01:03:48.738Z,21.60
2018-09-28T01:04:53.956Z,21.60
2018-09-28T01:05:59.196Z,21.60
2018-09-28T01:07:04.440Z,21.60
2018-09-28T01:08:09.638Z,21.60
2018-09-28T01:09:14.885Z,21.60
2018-09-28T01:10:20.111Z,21.60
2018-09-28T01:11:25.364Z,21.60
2018-09-28T01:12:30.579Z,21.60
2018-09-28T01:13:35.903Z,21.60
2018-09-28T01:14:41.096Z,21.60
2018-09-28T01:15:46.217Z,21.60
2018-09-28T01:16:51.479Z,21.60
2018-09-28T01:17:56.632Z,21.60
2018-09-28T01:19:01.867Z,21.60
2018-09-28T01:20:07.054Z,21.60
2018-09-28T01:21:12.472Z,21.60
2018-09-28T01:22:17.700Z,21.60
2018-09-28T01:23:22.809Z,21.60
2018-09-28T01:24:28.057Z,21.60
2018-09-28T01:25:33.283Z,21.60
2018-09-28T01:26:38.599Z,21.60
2018-09-28T01:27:43.859Z,21.60
2018-09-28T01:28:49.119Z,21.60
2018-09-28T01:29:54.150Z,21.60
2018-09-28T01:30:59.286Z,21.60
2018-09-28T01:32:04.493Z,21.60
2018-09-28T01:33:09.589Z,21.60
2018-09-28T01:34:14.894Z,21.60
2018-09-28T01:35:20.185Z,21.60
2018-09-28T01:36:25.426Z,21.60
2018-09-28T01:37:30.661Z,21.60
2018-09-28T01:38:35.827Z,21.60
2018-09-28T01:39:41.054Z,21.60
2018-09-28T01:40:46.313Z,21.60
2018-09-28T01:41:51.559Z,21.60
2018-09-28T01:42:56.689Z,21.60
2018-09-28T01:44:01.913Z,21.60
2018-09-28T01:45:07.004Z,21.60
2018-09-28T01:46:12.256Z,21.60
2018-09-28T01:47:17.456Z,21.60
2018-09-28T01:48:22.728Z,21.60
2018-09-28T01:49:27.914Z,21.60
2018-09-28T01:50:33.104Z,21.60
2018-09-28T01:51:38.372Z,21.60
2018-09-28T01:52:43.505Z,21.60
2018-09-28T01:53:48.668Z,21.60
2018-09-28T01:54:53.814Z,21.60
2018-09-28T01:55:59.090Z,21.60
2018-09-28T01:57:04.223Z,21.60
2018-09-28T01:58:09.333Z,21.60
2018-09-28T01:59:14.567Z,21.60
2018-09-28T02:00:20.777Z,21.60
2018-09-28T02:01:25.861Z,21.60
2018-09-28T02:02:31.199Z,21.60
2018-09-28T02:03:36.447Z,21.60
2018-09-28T02:04:41.596Z,21.60
2018-09-28T02:05:47.153Z,21.60
2018-09-28T02:06:52.418Z,21.60
2018-09-28T02:07:57.562Z,21.60
2018-09-28T02:09:02.744Z,21.60
2018-09-28T02:10:08.009Z,21.60
2018-09-28T02:11:13.256Z,21.60
2018-09-28T02:12:18.545Z,21.60
2018-09-28T02:13:23.776Z,21.60
2018-09-28T02:14:29.043Z,21.60
2018-09-28T02:15:34.261Z,21.60
2018-09-28T02:16:39.416Z,21.60
2018-09-28T02:17:44.642Z,21.60
2018-09-28T02:18:49.879Z,21.60
2018-09-28T02:19:55.149Z,21.60
2018-09-28T02:21:00.377Z,21.60
2018-09-28T02:22:05.445Z,21.60
2018-09-28T02:23:10.691Z,21.60
2018-09-28T02:24:15.881Z,21.60
2018-09-28T02:25:21.097Z,21.60
2018-09-28T02:26:26.302Z,21.60
2018-09-28T02:27:31.504Z,21.60
2018-09-28T02:28:36.735Z,21.60
2018-09-28T02:29:41.908Z,21.60
2018-09-28T02:30:47.151Z,21.60
2018-09-28T02:31:52.388Z,21.60
2018-09-28T02:32:57.964Z,21.60
2018-09-28T02:34:03.207Z,21.60
2018-09-28T02:35:08.481Z,21.60
2018-09-28T02:36:13.725Z,21.60
2018-09-28T02:37:18.881Z,21.60
2018-09-28T02:38:24.141Z,21.60
2018-09-28T02:39:29.337Z,21.60
2018-09-28T02:40:34.444Z,21.60
2018-09-28T02:41:39.578Z,21.60
2018-09-28T02:42:44.773Z,21.50
2018-09-28T02:43:50.065Z,21.60
2018-09-28T02:44:55.359Z,21.60
2018-09-28T02:46:00.501Z,21.60
2018-09-28T02:47:05.632Z,21.60
2018-09-28T02:48:10.836Z,21.60
2018-09-28T02:49:16.032Z,21.60
2018-09-28T02:50:21.256Z,21.60
2018-09-28T02:51:26.527Z,21.60
2018-09-28T02:52:32.065Z,21.60
2018-09-28T02:53:37.200Z,21.60
2018-09-28T02:54:42.439Z,21.60
2018-09-28T02:55:47.718Z,21.60
2018-09-28T02:56:53.017Z,21.60
2018-09-28T02:57:58.190Z,21.60
2018-09-28T02:59:03.475Z,21.60
2018-09-28T03:00:08.981Z,21.60
2018-09-28T03:01:14.150Z,21.60
2018-09-28T03:02:19.408Z,21.60
2018-09-28T03:03:24.645Z,21.60
2018-09-28T03:04:29.879Z,21.60
2018-09-28T03:05:35.075Z,21.60
2018-09-28T03:06:40.225Z,21.60
2018-09-28T03:07:45.440Z,21.60
2018-09-28T03:08:50.685Z,21.60
2018-09-28T03:09:55.812Z,21.60
2018-09-28T03:11:01.014Z,21.60
2018-09-28T03:12:06.142Z,21.60
2018-09-28T03:13:11.294Z,21.60
2018-09-28T03:14:16.537Z,21.60
2018-09-28T03:15:21.652Z,21.60
2018-09-28T03:16:26.798Z,21.60
2018-09-28T03:17:32.227Z,21.60
2018-09-28T03:18:37.457Z,21.60
2018-09-28T03:19:42.871Z,21.60
2018-09-28T03:20:48.098Z,21.60
2018-09-28T03:21:53.316Z,21.60
2018-09-28T03:22:58.585Z,21.60
2018-09-28T03:24:03.828Z,21.60
2018-09-28T03:25:08.896Z,21.60
2018-09-28T03:26:14.106Z,21.60
2018-09-28T03:27:19.358Z,21.60
2018-09-28T03:28:24.468Z,21.60
2018-09-28T03:29:29.675Z,21.60
2018-09-28T03:30:34.802Z,21.60
2018-09-28T03:31:39.949Z,21.60
2018-09-28T03:32:45.217Z,21.60
2018-09-28T03:33:50.447Z,21.60
2018-09-28T03:34:55.553Z,21.60
2018-09-28T03:36:00.639Z,21.60
2018-09-28T03:37:05.901Z,21.60
2018-09-28T03:38:11.054Z,21.60
2018-09-28T03:39:16.313Z,21.60
2018-09-28T03:40:21.497Z,21.60
2018-09-28T03:41:26.618Z,21.60
2018-09-28T03:42:31.822Z,21.60
2018-09-28T03:43:37.036Z,21.60
2018-09-28T03:44:42.390Z,21.60
2018-09-28T03:45:47.638Z,21.60
2018-09-28T03:46:52.756Z,21.60
2018-09-28T03:47:57.991Z,21.60
2018-09-28T03:49:03.172Z,21.60
2018-09-28T03:50:08.368Z,21.60
2018-09-28T03:51:13.615Z,21.60
2018-09-28T03:52:18.827Z,21.60
2018-09-28T03:53:24.017Z,21.60
2018-09-28T03:54:29.166Z,21.60
2018-09-28T03:55:34.427Z,21.60
2018-09-28T03:56:39.725Z,21.60
2018-09-28T03:57:44.958Z,21.60
2018-09-28T03:58:50.103Z,21.60
2018-09-28T03:59:55.257Z,21.60
2018-09-28T04:01:00.377Z,21.60
2018-09-28T04:02:05.628Z,21.60
2018-09-28T04:03:10.871Z,21.60
2018-09-28T04:04:16.108Z,21.60
2018-09-28T04:05:21.361Z,21.60
2018-09-28T04:06:26.516Z,21.60
2018-09-28T04:07:31.947Z,21.60
2018-09-28T04:08:37.332Z,21.60
2018-09-28T04:09:42.662Z,21.60
2018-09-28T04:10:47.911Z,21.60
2018-09-28T04:11:53.122Z,21.60
2018-09-28T04:12:58.344Z,21.60
2018-09-28T04:14:03.677Z,21.60
2018-09-28T04:15:08.880Z,21.60
2018-09-28T04:16:14.203Z,21.60
2018-09-28T04:17:19.383Z,21.60
2018-09-28T04:18:24.549Z,21.60
2018-09-28T04:19:29.705Z,21.60
2018-09-28T04:20:34.884Z,21.60
2018-09-28T04:21:40.074Z,21.60
2018-09-28T04:22:45.258Z,21.60
2018-09-28T04:23:50.427Z,21.60
2018-09-28T04:24:55.562Z,21.60
2018-09-28T04:26:00.685Z,21.60
2018-09-28T04:27:05.786Z,21.60
2018-09-28T04:28:10.847Z,21.60
2018-09-28T04:29:15.916Z,21.60
2018-09-28T04:30:21.024Z,21.60
2018-09-28T04:31:26.140Z,21.60
2018-09-28T04:32:31.387Z,21.60
2018-09-28T04:33:36.579Z,21.60
2018-09-28T04:34:41.742Z,21.60
2018-09-28T04:35:46.945Z,21.60
2018-09-28T04:36:52.238Z,21.60
2018-09-28T04:37:58.357Z,21.50
2018-09-28T04:39:03.531Z,21.50
2018-09-28T04:40:08.761Z,21.50
2018-09-28T04:41:14.011Z,21.50
2018-09-28T04:42:19.394Z,21.50
2018-09-28T04:43:24.618Z,21.50
2018-09-28T04:44:29.860Z,21.50
2018-09-28T04:45:35.211Z,21.50
2018-09-28T04:46:40.363Z,21.50
2018-09-28T04:47:45.546Z,21.50
2018-09-28T04:48:50.734Z,21.50
2018-09-28T04:49:55.970Z,21.50
2018-09-28T04:51:01.206Z,21.50
2018-09-28T04:52:06.762Z,21.50
2018-09-28T04:53:11.846Z,21.50
2018-09-28T04:54:16.965Z,21.50
2018-09-28T04:55:22.079Z,21.50
2018-09-28T04:56:27.348Z,21.50
2018-09-28T04:57:32.424Z,21.40
2018-09-28T04:58:37.664Z,21.50
2018-09-28T04:59:42.912Z,21.50
2018-09-28T05:00:48.075Z,21.50
2018-09-28T05:01:53.345Z,21.50
2018-09-28T05:02:58.608Z,21.50
2018-09-28T05:04:03.826Z,21.50
2018-09-28T05:05:09.079Z,21.50
2018-09-28T05:06:14.285Z,21.40
2018-09-28T05:07:19.532Z,21.50
2018-09-28T05:08:24.884Z,21.40
2018-09-28T05:09:30.011Z,21.50
2018-09-28T05:10:35.183Z,21.40
2018-09-28T05:11:40.289Z,21.50
2018-09-28T05:12:45.477Z,21.50
2018-09-28T05:13:50.747Z,21.50
2018-09-28T05:14:55.917Z,21.40
2018-09-28T05:16:01.159Z,21.40
2018-09-28T05:17:06.424Z,21.40
2018-09-28T05:18:11.570Z,21.40
2018-09-28T05:19:17.012Z,21.40
2018-09-28T05:20:22.180Z,21.40
2018-09-28T05:21:27.391Z,21.40
2018-09-28T05:22:32.537Z,21.40
2018-09-28T05:23:37.640Z,21.40
2018-09-28T05:24:42.873Z,21.40
2018-09-28T05:25:48.256Z,21.40
2018-09-28T05:26:53.510Z,21.40
2018-09-28T05:27:58.797Z,21.40
2018-09-28T05:29:04.115Z,21.40
2018-09-28T05:30:09.363Z,21.40
2018-09-28T05:31:14.622Z,21.40
2018-09-28T05:32:19.971Z,21.40
2018-09-28T05:33:25.177Z,21.40
2018-09-28T05:34:30.381Z,21.40
2018-09-28T05:35:35.549Z,21.40
2018-09-28T05:36:40.761Z,21.40
2018-09-28T05:37:46.052Z,21.40
2018-09-28T05:38:51.197Z,21.40
2018-09-28T05:39:56.428Z,21.40
2018-09-28T05:41:01.681Z,21.40
2018-09-28T05:42:06.990Z,21.40
2018-09-28T05:43:12.115Z,21.40
2018-09-28T05:44:17.345Z,21.40
2018-09-28T05:45:22.530Z,21.40
2018-09-28T05:46:28.080Z,21.40
2018-09-28T05:47:33.252Z,21.50
2018-09-28T05:48:38.554Z,21.50
2018-09-28T05:49:43.866Z,21.50
2018-09-28T05:50:49.155Z,21.50
2018-09-28T05:51:54.384Z,21.50
2018-09-28T05:52:59.588Z,21.40
2018-09-28T05:54:04.898Z,21.50
2018-09-28T05:55:10.154Z,21.50
2018-09-28T05:56:15.395Z,21.50
2018-09-28T05:57:20.677Z,21.50
2018-09-28T05:58:25.955Z,21.50
2018-09-28T05:59:31.217Z,21.50
2018-09-28T06:00:36.601Z,21.50
2018-09-28T06:01:41.882Z,21.50
2018-09-28T06:02:47.278Z,21.40
2018-09-28T06:03:52.514Z,21.50
2018-09-28T06:04:57.745Z,21.50
2018-09-28T06:06:03.194Z,21.50
2018-09-28T06:07:08.351Z,21.40
2018-09-28T06:08:13.553Z,21.50
2018-09-28T06:09:18.698Z,21.50
2018-09-28T06:10:24.024Z,21.50
2018-09-28T06:11:29.345Z,21.40
2018-09-28T06:12:34.509Z,21.40
2018-09-28T06:13:39.718Z,21.40
2018-09-28T06:14:44.974Z,21.40
2018-09-28T06:15:50.117Z,21.50
2018-09-28T06:16:55.284Z,21.50
2018-09-28T06:18:00.510Z,21.50
2018-09-28T06:19:05.747Z,21.50
2018-09-28T06:20:11.061Z,21.50
2018-09-28T06:21:16.519Z,21.50
2018-09-28T06:22:22.427Z,21.40
2018-09-28T06:23:27.635Z,21.30
2018-09-28T06:24:32.869Z,21.30
2018-09-28T06:25:38.028Z,21.30
2018-09-28T06:26:43.290Z,21.20
2018-09-28T06:27:48.555Z,21.20
2018-09-28T06:28:53.825Z,21.10
2018-09-28T06:30:23.771Z,21.00
2018-09-28T06:31:39.104Z,21.10
2018-09-28T06:32:51.275Z,21.10
2018-09-28T06:33:56.832Z,21.10
2018-09-28T06:35:02.707Z,21.10
2018-09-28T06:36:09.190Z,21.10
2018-09-28T06:37:15.530Z,21.10
2018-09-28T06:38:20.669Z,21.10
2018-09-28T06:39:27.582Z,21.00
2018-09-28T06:40:33.087Z,21.00
2018-09-28T06:41:38.277Z,20.90
2018-09-28T06:42:43.545Z,20.90
2018-09-28T06:43:48.808Z,20.90
2018-09-28T06:44:53.972Z,20.90
2018-09-28T06:45:59.268Z,20.90
2018-09-28T06:47:04.730Z,20.90
2018-09-28T06:48:10.055Z,20.90
2018-09-28T06:49:15.179Z,20.90
2018-09-28T06:50:20.416Z,20.90
2018-09-28T06:51:25.675Z,20.90
2018-09-28T06:52:30.803Z,21.00
2018-09-28T06:53:36.092Z,21.00
2018-09-28T06:54:41.344Z,21.00
2018-09-28T06:55:46.498Z,21.00
2018-09-28T06:56:51.846Z,21.10
2018-09-28T06:57:57.084Z,21.00
2018-09-28T06:59:02.346Z,21.10
2018-09-28T07:00:07.603Z,21.10
2018-09-28T07:01:12.697Z,21.10
2018-09-28T07:02:17.811Z,21.10
2018-09-28T07:03:22.976Z,21.10
2018-09-28T07:04:28.267Z,21.10
2018-09-28T07:05:33.618Z,21.10
2018-09-28T07:06:38.797Z,21.10
2018-09-28T07:07:43.955Z,21.10
2018-09-28T07:08:49.183Z,21.10
2018-09-28T07:09:54.410Z,21.10
2018-09-28T07:10:59.637Z,21.10
2018-09-28T07:12:04.875Z,21.00
2018-09-28T07:13:10.032Z,21.00
2018-09-28T07:14:15.272Z,21.00
2018-09-28T07:15:20.573Z,20.90
2018-09-28T07:16:25.902Z,20.90
2018-09-28T07:17:31.094Z,20.90
2018-09-28T07:18:36.305Z,20.90
2018-09-28T07:19:41.513Z,20.90
2018-09-28T07:20:46.782Z,20.90
2018-09-28T07:21:52.012Z,20.80
2018-09-28T07:22:57.265Z,20.80
2018-09-28T07:24:02.420Z,20.80
2018-09-28T07:25:07.539Z,20.80
2018-09-28T07:26:12.780Z,20.80
2018-09-28T07:27:18.046Z,20.80
2018-09-28T07:28:23.277Z,20.90
2018-09-28T07:29:28.532Z,20.90
2018-09-28T07:30:33.603Z,20.90
2018-09-28T07:31:38.853Z,20.90
2018-09-28T07:32:43.975Z,21.00
2018-09-28T07:33:49.255Z,20.90
2018-09-28T07:34:54.498Z,20.90
2018-09-28T07:35:59.765Z,20.90
2018-09-28T07:37:05.177Z,20.90
2018-09-28T07:38:10.206Z,20.80
2018-09-28T07:39:15.340Z,20.80
2018-09-28T07:40:20.528Z,20.80
2018-09-28T07:41:25.667Z,20.80
2018-09-28T07:42:30.897Z,20.90
2018-09-28T07:43:36.143Z,20.90
2018-09-28T07:44:41.374Z,20.90
2018-09-28T07:45:46.608Z,21.10
2018-09-28T07:46:51.789Z,21.00
2018-09-28T07:47:57.120Z,21.00
2018-09-28T07:49:02.300Z,21.00
2018-09-28T07:50:07.488Z,21.00
2018-09-28T07:51:12.731Z,21.10
2018-09-28T07:52:17.980Z,21.10
2018-09-28T07:53:23.228Z,21.10
2018-09-28T07:54:28.418Z,21.10
2018-09-28T07:55:33.568Z,21.10
2018-09-28T07:56:38.814Z,21.10
2018-09-28T07:57:44.049Z,21.10
2018-09-28T07:58:49.295Z,21.10
2018-09-28T07:59:54.549Z,21.10
2018-09-28T08:00:59.791Z,21.10
2018-09-28T08:02:05.037Z,21.10
2018-09-28T08:03:10.199Z,21.10
2018-09-28T08:04:15.459Z,21.20
2018-09-28T08:05:20.724Z,21.20
2018-09-28T08:06:25.852Z,21.20
2018-09-28T08:07:30.955Z,21.20
2018-09-28T08:08:36.075Z,21.20
2018-09-28T08:09:41.181Z,21.20
2018-09-28T08:10:46.302Z,21.20
2018-09-28T08:11:51.423Z,21.20
2018-09-28T08:12:56.739Z,21.30
2018-09-28T08:14:02.090Z,21.30
2018-09-28T08:15:07.235Z,21.30
2018-09-28T08:16:12.357Z,21.30
2018-09-28T08:17:17.618Z,21.30
2018-09-28T08:18:22.836Z,21.30
2018-09-28T08:19:28.072Z,21.30
2018-09-28T08:20:33.299Z,21.30
2018-09-28T08:21:38.447Z,21.30
2018-09-28T08:22:43.681Z,21.30
2018-09-28T08:23:48.932Z,21.30
2018-09-28T08:24:54.204Z,21.30
2018-09-28T08:25:59.385Z,21.30
2018-09-28T08:27:04.636Z,21.30
2018-09-28T08:28:09.819Z,21.30
2018-09-28T08:29:15.054Z,21.30
2018-09-28T08:30:20.327Z,21.20
2018-09-28T08:31:25.553Z,21.20
2018-09-28T08:32:30.798Z,21.30
2018-09-28T08:33:36.030Z,21.20
2018-09-28T08:34:41.282Z,21.20
2018-09-28T08:35:46.445Z,21.30
2018-09-28T08:36:51.787Z,21.20
2018-09-28T08:37:57.032Z,21.20
2018-09-28T08:39:02.258Z,21.20
2018-09-28T08:40:07.487Z,21.20
2018-09-28T08:41:12.715Z,21.30
2018-09-28T08:42:17.969Z,21.30
2018-09-28T08:43:23.228Z,21.30
2018-09-28T08:44:28.416Z,21.30
2018-09-28T08:45:33.656Z,21.30
2018-09-28T08:46:38.862Z,21.30
2018-09-28T08:47:44.064Z,21.30
2018-09-28T08:48:49.282Z,21.30
2018-09-28T08:49:54.917Z,21.30
2018-09-28T08:51:00.332Z,21.30
2018-09-28T08:52:05.413Z,21.30
2018-09-28T08:53:10.643Z,21.30
2018-09-28T08:54:15.794Z,21.30
2018-09-28T08:55:21.024Z,21.30
2018-09-28T08:56:26.256Z,21.30
2018-09-28T08:57:31.525Z,21.30
2018-09-28T08:58:36.636Z,21.30
2018-09-28T08:59:41.899Z,21.30
2018-09-28T09:00:47.148Z,21.30
2018-09-28T09:01:52.420Z,21.30
2018-09-28T09:02:57.827Z,21.30
2018-09-28T09:04:02.961Z,21.30
2018-09-28T09:05:08.107Z,21.30
2018-09-28T09:06:13.467Z,21.30
2018-09-28T09:07:18.752Z,21.30
2018-09-28T09:08:23.935Z,21.30
2018-09-28T09:09:29.124Z,21.30
2018-09-28T09:10:34.306Z,21.30
2018-09-28T09:11:39.609Z,21.40
2018-09-28T09:12:44.917Z,21.40
2018-09-28T09:13:50.096Z,21.40
2018-09-28T09:14:55.249Z,21.40
2018-09-28T09:16:00.511Z,21.40
2018-09-28T09:17:05.591Z,21.40
2018-09-28T09:18:10.979Z,21.40
2018-09-28T09:19:16.130Z,21.40
2018-09-28T09:20:21.398Z,21.40
2018-09-28T09:21:26.645Z,21.40
2018-09-28T09:22:31.958Z,21.40
2018-09-28T09:23:37.119Z,21.40
2018-09-28T09:24:42.315Z,21.40
2018-09-28T09:25:47.476Z,21.40
2018-09-28T09:26:52.707Z,21.40
2018-09-28T09:27:57.834Z,21.50
2018-09-28T09:29:03.088Z,21.40
2018-09-28T09:30:08.456Z,21.40
2018-09-28T09:31:13.705Z,21.40
2018-09-28T09:32:18.814Z,21.40
2018-09-28T09:33:24.063Z,21.40
2018-09-28T09:34:29.228Z,21.40
2018-09-28T09:35:34.473Z,21.40
2018-09-28T09:36:39.716Z,21.40
2018-09-28T09:37:44.799Z,21.40
2018-09-28T09:38:49.937Z,21.40
2018-09-28T09:39:55.192Z,21.40
2018-09-28T09:41:00.452Z,21.40
2018-09-28T09:42:05.749Z,21.30
2018-09-28T09:43:10.946Z,21.40
2018-09-28T09:44:16.077Z,21.30
2018-09-28T09:45:21.239Z,21.40
2018-09-28T09:46:26.398Z,21.40
2018-09-28T09:47:31.592Z,21.40
2018-09-28T09:48:36.953Z,21.40
2018-09-28T09:49:42.117Z,21.40
2018-09-28T09:50:47.403Z,21.40
2018-09-28T09:51:52.608Z,21.40
2018-09-28T09:52:57.849Z,21.40
2018-09-28T09:54:03.320Z,21.40
2018-09-28T09:55:08.400Z,21.40
2018-09-28T09:56:13.573Z,21.40
2018-09-28T09:57:18.720Z,21.40
2018-09-28T09:58:23.830Z,21.40
2018-09-28T09:59:29.109Z,21.40
2018-09-28T10:00:34.317Z,21.40
2018-09-28T10:01:39.488Z,21.40
2018-09-28T10:02:44.691Z,21.30
2018-09-28T10:03:49.878Z,21.30
2018-09-28T10:04:55.312Z,21.30
2018-09-28T10:06:00.481Z,21.30
2018-09-28T10:07:05.700Z,21.30
2018-09-28T10:08:10.923Z,21.30
2018-09-28T10:09:16.111Z,21.30
2018-09-28T10:10:21.235Z,21.30
2018-09-28T10:11:26.436Z,21.30
2018-09-28T10:12:31.552Z,21.30
2018-09-28T10:13:36.748Z,21.30
2018-09-28T10:14:41.930Z,21.50
2018-09-28T10:15:47.198Z,21.40
2018-09-28T10:16:52.494Z,21.30
2018-09-28T10:17:57.702Z,21.30
2018-09-28T10:19:02.785Z,21.40
2018-09-28T10:20:08.161Z,21.30
2018-09-28T10:21:13.519Z,21.40
2018-09-28T10:22:18.623Z,21.40
2018-09-28T10:23:23.839Z,21.40
2018-09-28T10:24:29.054Z,21.40
2018-09-28T10:25:34.133Z,21.30
2018-09-28T10:26:39.386Z,21.40
2018-09-28T10:27:44.676Z,21.30
2018-09-28T10:28:49.903Z,21.40
2018-09-28T10:29:54.931Z,21.30
2018-09-28T10:31:00.202Z,21.30
2018-09-28T10:32:05.433Z,21.30
2018-09-28T10:33:10.586Z,21.30
2018-09-28T10:34:15.704Z,21.40
2018-09-28T10:35:20.756Z,21.40
2018-09-28T10:36:25.878Z,21.40
2018-09-28T10:37:31.153Z,21.40
2018-09-28T10:38:36.175Z,21.40
2018-09-28T10:39:41.255Z,21.30
2018-09-28T10:40:46.390Z,21.30
2018-09-28T10:41:51.620Z,21.30
2018-09-28T10:42:56.805Z,21.30
2018-09-28T10:44:01.997Z,21.30
2018-09-28T10:45:07.225Z,21.30
2018-09-28T10:46:12.424Z,21.30
2018-09-28T10:47:17.492Z,21.30
2018-09-28T10:48:22.659Z,21.30
2018-09-28T10:49:27.839Z,21.30
2018-09-28T10:50:32.952Z,21.30
2018-09-28T10:51:38.199Z,21.30
2018-09-28T10:52:43.413Z,21.30
2018-09-28T10:53:48.565Z,21.30
2018-09-28T10:54:53.781Z,21.30
2018-09-28T10:55:59.001Z,21.30
2018-09-28T10:57:04.148Z,21.30
2018-09-28T10:58:09.335Z,21.30
2018-09-28T10:59:14.458Z,21.30
2018-09-28T11:00:19.713Z,21.30
2018-09-28T11:01:24.895Z,21.30
2018-09-28T11:02:30.068Z,21.30
2018-09-28T11:03:35.408Z,21.30
2018-09-28T11:04:40.626Z,21.30
2018-09-28T11:05:45.824Z,21.30
2018-09-28T11:06:51.089Z,21.30
2018-09-28T11:07:56.212Z,21.30
2018-09-28T11:09:01.565Z,21.30
2018-09-28T11:10:06.803Z,21.30
2018-09-28T11:11:12.044Z,21.30
2018-09-28T11:12:17.172Z,21.30
2018-09-28T11:13:22.399Z,21.30
2018-09-28T11:14:27.654Z,21.30
2018-09-28T11:15:32.992Z,21.30
2018-09-28T11:16:38.230Z,21.30
2018-09-28T11:17:43.477Z,21.30
2018-09-28T11:18:48.713Z,21.30
2018-09-28T11:19:53.978Z,21.30
2018-09-28T11:20:59.234Z,21.30
2018-09-28T11:22:04.473Z,21.30
2018-09-28T11:23:09.768Z,21.30
2018-09-28T11:24:15.821Z,21.30
2018-09-28T11:25:21.066Z,21.30
2018-09-28T11:26:26.316Z,21.30
2018-09-28T11:27:31.339Z,21.30
2018-09-28T11:28:36.553Z,21.30
2018-09-28T11:29:41.761Z,21.30
2018-09-28T11:30:47.007Z,21.30
2018-09-28T11:31:52.219Z,21.30
2018-09-28T11:32:57.465Z,21.30
2018-09-28T11:34:02.669Z,21.40
2018-09-28T11:35:07.923Z,21.30
2018-09-28T11:36:13.115Z,21.30
2018-09-28T11:37:18.359Z,21.30
2018-09-28T11:38:23.344Z,21.40
2018-09-28T11:39:28.566Z,21.40
2018-09-28T11:40:33.725Z,21.40
2018-09-28T11:41:38.849Z,21.40
2018-09-28T11:42:44.019Z,21.40
2018-09-28T11:43:49.212Z,21.50
2018-09-28T11:44:54.338Z,21.50
2018-09-28T11:45:59.389Z,21.50
2018-09-28T11:47:04.606Z,21.50
2018-09-28T11:48:09.815Z,21.60
2018-09-28T11:49:15.016Z,21.60
2018-09-28T11:50:20.191Z,21.60
2018-09-28T11:51:25.552Z,21.60
2018-09-28T11:52:30.718Z,21.60
2018-09-28T11:53:35.825Z,21.50
2018-09-28T11:54:41.149Z,21.50
2018-09-28T11:55:46.398Z,21.50
2018-09-28T11:56:51.689Z,21.50
2018-09-28T11:57:56.962Z,21.50
2018-09-28T11:59:02.204Z,21.50
2018-09-28T12:00:07.438Z,21.50
2018-09-28T12:01:12.688Z,21.50
2018-09-28T12:02:18.038Z,21.50
2018-09-28T12:03:23.226Z,21.40
2018-09-28T12:04:28.347Z,21.40
2018-09-28T12:05:33.512Z,21.40
2018-09-28T12:06:38.755Z,21.50
2018-09-28T12:07:43.912Z,21.50
2018-09-28T12:08:49.035Z,21.50
2018-09-28T12:09:54.257Z,21.40
2018-09-28T12:10:59.520Z,21.40
2018-09-28T12:12:04.671Z,21.40
2018-09-28T12:13:09.896Z,21.50
2018-09-28T12:14:15.129Z,21.50
2018-09-28T12:15:20.473Z,21.40
2018-09-28T12:16:25.727Z,21.50
2018-09-28T12:17:30.999Z,21.50
2018-09-28T12:18:36.264Z,21.50
2018-09-28T12:19:41.440Z,21.50
2018-09-28T12:20:46.690Z,21.50
2018-09-28T12:21:52.124Z,21.50
2018-09-28T12:22:57.334Z,21.50
2018-09-28T12:24:02.512Z,21.50
2018-09-28T12:25:07.644Z,21.50
2018-09-28T12:26:12.878Z,21.50
2018-09-28T12:27:18.035Z,21.50
2018-09-28T12:28:23.230Z,21.50
2018-09-28T12:29:28.358Z,21.40
2018-09-28T12:30:33.580Z,21.40
2018-09-28T12:31:38.676Z,21.50
2018-09-28T12:32:43.938Z,21.50
2018-09-28T12:33:49.215Z,21.50
2018-09-28T12:34:54.398Z,21.50
2018-09-28T12:35:59.647Z,21.50
2018-09-28T12:37:05.520Z,21.40
2018-09-28T12:38:10.815Z,21.50
2018-09-28T12:39:16.911Z,21.40
2018-09-28T12:40:22.231Z,21.40
2018-09-28T12:41:27.377Z,21.40
2018-09-28T12:42:32.654Z,21.40
2018-09-28T12:43:37.891Z,21.40
2018-09-28T12:44:43.176Z,21.40
2018-09-28T12:45:48.395Z,21.40
2018-09-28T12:46:53.679Z,21.40
2018-09-28T12:47:58.909Z,21.40
2018-09-28T12:49:04.162Z,21.40
2018-09-28T12:50:09.376Z,21.40
2018-09-28T12:51:14.580Z,21.40
2018-09-28T12:52:19.768Z,21.40
2018-09-28T12:53:24.979Z,21.40
2018-09-28T12:54:30.289Z,21.40
2018-09-28T12:55:35.449Z,21.40
2018-09-28T12:56:40.691Z,21.40
2018-09-28T12:57:45.890Z,21.40
2018-09-28T12:58:51.126Z,21.40
2018-09-28T12:59:56.408Z,21.40
2018-09-28T13:01:01.771Z,21.40
2018-09-28T13:02:06.860Z,21.40
2018-09-28T13:03:12.093Z,21.40
2018-09-28T13:04:17.268Z,21.40
2018-09-28T13:05:22.452Z,21.50
2018-09-28T13:06:27.639Z,21.50
2018-09-28T13:07:32.866Z,21.50
2018-09-28T13:08:38.062Z,21.50
2018-09-28T13:09:43.119Z,21.50
2018-09-28T13:10:48.338Z,21.50
2018-09-28T13:11:53.484Z,21.50
2018-09-28T13:12:58.616Z,21.50
2018-09-28T13:14:03.767Z,21.50
2018-09-28T13:15:08.998Z,21.50
2018-09-28T13:16:14.031Z,21.60
2018-09-28T13:17:19.255Z,21.60
2018-09-28T13:18:24.518Z,21.60
2018-09-28T13:19:29.695Z,21.60
2018-09-28T13:20:34.953Z,21.60
2018-09-28T13:21:40.232Z,21.60
2018-09-28T13:22:45.430Z,21.60
2018-09-28T13:23:50.716Z,21.60
2018-09-28T13:24:55.947Z,21.60
2018-09-28T13:26:01.072Z,21.60
2018-09-28T13:27:06.288Z,21.50
2018-09-28T13:28:11.619Z,21.50
2018-09-28T13:29:17.786Z,21.50
2018-09-28T13:30:22.818Z,21.50
2018-09-28T13:31:28.022Z,21.50
2018-09-28T13:32:33.200Z,21.50
2018-09-28T13:33:38.452Z,21.50
2018-09-28T13:34:43.679Z,21.50
2018-09-28T13:35:48.747Z,21.40
2018-09-28T13:36:54.008Z,21.50
2018-09-28T13:37:59.224Z,21.40
2018-09-28T13:39:04.499Z,21.40
2018-09-28T13:40:09.530Z,21.40
2018-09-28T13:41:14.809Z,21.50
2018-09-28T13:42:19.943Z,21.50
2018-09-28T13:43:25.058Z,21.50
2018-09-28T13:44:30.317Z,21.50
2018-09-28T13:45:35.569Z,21.60
2018-09-28T13:46:40.717Z,21.60
2018-09-28T13:47:45.922Z,21.60
2018-09-28T13:48:51.128Z,21.60
2018-09-28T13:49:56.291Z,21.60
2018-09-28T13:51:01.529Z,21.50
2018-09-28T13:52:06.758Z,21.60
2018-09-28T13:53:14.237Z,21.60
2018-09-28T13:54:19.826Z,21.60
2018-09-28T13:55:25.187Z,21.60
2018-09-28T13:56:30.937Z,21.50
2018-09-28T13:57:36.217Z,21.50
2018-09-28T13:58:41.561Z,21.50
2018-09-28T13:59:46.740Z,21.50
2018-09-28T14:00:51.984Z,21.50